Time;durP1;ratioP1;P1;durP2;ratioP2;P2;SDS_P1;SDS_P2;PMS_P1;PMS_P2;Temp;Humidity;BMP_temperature;BMP_pressure;BME280_temperature;BME280_humidity;BME280_pressure;Samples;Min_cycle;Max_cycle;Signal;HPM_P1;HPM_P2
2022/03/07 00:01:27;;;;;;;18.85;9.80;;;;;;;;;;5010579;28;20749;-74
2022/03/07 00:03:54;;;;;;;19.90;10.70;;;;;;;;;;5010499;28;20419;-74
2022/03/07 00:06:20;;;;;;;17.00;10.35;;;;;;;;;;5009461;28;20073;-74
2022/03/07 00:08:46;;;;;;;20.40;11.02;;;;;;;;;;5010576;28;20026;-74
2022/03/07 00:11:12;;;;;;;35.90;18.67;;;;;;;;;;5010575;28;20498;-74
2022/03/07 00:13:38;;;;;;;27.77;15.30;;;;;;;;;;5012354;28;20053;-75
2022/03/07 00:16:05;;;;;;;29.83;15.35;;;;;;;;;;5009361;28;20536;-74
2022/03/07 00:18:31;;;;;;;29.88;16.13;;;;;;;;;;5016013;28;20033;-74
2022/03/07 00:20:57;;;;;;;19.13;11.88;;;;;;;;;;5009379;28;20033;-74
2022/03/07 00:23:23;;;;;;;18.08;12.10;;;;;;;;;;5010500;28;20060;-73
2022/03/07 00:25:49;;;;;;;21.88;11.43;;;;;;;;;;5010049;28;20456;-73
2022/03/07 00:28:16;;;;;;;21.65;11.38;;;;;;;;;;5010796;28;20029;-74
2022/03/07 00:30:42;;;;;;;32.00;14.95;;;;;;;;;;5010761;28;20030;-74
2022/03/07 00:33:09;;;;;;;24.58;13.27;;;;;;;;;;5011483;28;20105;-74
2022/03/07 00:35:35;;;;;;;20.73;11.45;;;;;;;;;;5009924;28;20069;-75
2022/03/07 00:38:01;;;;;;;26.08;12.90;;;;;;;;;;5010494;28;20049;-74
2022/03/07 00:40:27;;;;;;;19.90;11.55;;;;;;;;;;5009141;28;20030;-74
2022/03/07 00:42:53;;;;;;;20.08;12.57;;;;;;;;;;5010564;28;20503;-74
2022/03/07 00:45:19;;;;;;;15.45;11.45;;;;;;;;;;5009509;28;20022;-74
2022/03/07 00:47:46;;;;;;;19.85;11.38;;;;;;;;;;5010033;28;20077;-74
2022/03/07 00:50:12;;;;;;;14.93;9.85;;;;;;;;;;5010903;28;20030;-74
2022/03/07 00:52:38;;;;;;;14.95;9.43;;;;;;;;;;5011009;28;20597;-75
2022/03/07 00:55:05;;;;;;;15.10;9.70;;;;;;;;;;5010661;28;20145;-75
2022/03/07 00:57:31;;;;;;;16.98;10.95;;;;;;;;;;5010237;28;20472;-75
2022/03/07 00:59:57;;;;;;;14.88;10.05;;;;;;;;;;5009614;28;20041;-74
2022/03/07 01:02:23;;;;;;;12.57;9.52;;;;;;;;;;5009120;28;20026;-75
2022/03/07 01:04:50;;;;;;;17.50;11.07;;;;;;;;;;5009929;28;20109;-75
2022/03/07 01:07:16;;;;;;;24.88;10.60;;;;;;;;;;5003607;28;20460;-74
2022/03/07 01:09:42;;;;;;;17.52;11.18;;;;;;;;;;5007278;28;20030;-75
2022/03/07 01:12:09;;;;;;;19.42;10.80;;;;;;;;;;5009710;28;20057;-75
2022/03/07 01:14:35;;;;;;;18.65;11.43;;;;;;;;;;5009167;28;20021;-74
2022/03/07 01:17:01;;;;;;;15.07;10.82;;;;;;;;;;5012957;28;20036;-74
2022/03/07 01:19:27;;;;;;;21.48;11.10;;;;;;;;;;5010629;28;20038;-74
2022/03/07 01:21:53;;;;;;;20.75;11.45;;;;;;;;;;5007022;28;20044;-75
2022/03/07 01:24:19;;;;;;;18.75;10.45;;;;;;;;;;5009717;28;20052;-75
2022/03/07 01:26:46;;;;;;;19.00;11.15;;;;;;;;;;5009707;28;20026;-74
2022/03/07 01:29:12;;;;;;;16.25;11.25;;;;;;;;;;5008453;28;20030;-74
2022/03/07 01:31:38;;;;;;;18.33;10.02;;;;;;;;;;5004327;28;20029;-74
2022/03/07 01:34:04;;;;;;;22.88;10.80;;;;;;;;;;5007499;28;20109;-75
2022/03/07 01:36:30;;;;;;;16.73;10.15;;;;;;;;;;5008797;28;20087;-74
2022/03/07 01:38:56;;;;;;;20.08;11.45;;;;;;;;;;5009418;28;20033;-74
2022/03/07 01:41:22;;;;;;;19.10;11.38;;;;;;;;;;5009007;28;20037;-75
2022/03/07 01:43:48;;;;;;;17.92;11.73;;;;;;;;;;5008969;28;20030;-75
2022/03/07 01:46:14;;;;;;;17.55;12.48;;;;;;;;;;5009165;28;20018;-75
2022/03/07 01:48:40;;;;;;;22.60;13.52;;;;;;;;;;5006851;28;20034;-74
2022/03/07 01:51:07;;;;;;;17.95;12.07;;;;;;;;;;5009880;28;20026;-75
2022/03/07 01:53:33;;;;;;;22.02;11.77;;;;;;;;;;5007706;28;20064;-75
2022/03/07 01:55:59;;;;;;;21.83;11.00;;;;;;;;;;5009522;28;20404;-75
2022/03/07 01:58:25;;;;;;;15.63;10.52;;;;;;;;;;5009724;28;20030;-74
2022/03/07 02:00:51;;;;;;;18.02;10.25;;;;;;;;;;5002825;28;20030;-73
2022/03/07 02:03:18;;;;;;;17.48;9.68;;;;;;;;;;5009214;28;20088;-72
2022/03/07 02:05:46;;;;;;;16.63;9.93;;;;;;;;;;5008522;28;20507;-74
2022/03/07 02:08:13;;;;;;;18.95;10.52;;;;;;;;;;5005319;28;20025;-74
2022/03/07 02:10:40;;;;;;;16.40;10.73;;;;;;;;;;5008857;28;20026;-74
2022/03/07 02:13:16;;;;;;;15.20;9.75;;;;;;;;;;5007482;28;20045;-74
2022/03/07 02:15:42;;;;;;;13.50;9.15;;;;;;;;;;5008490;28;20072;-75
2022/03/07 02:18:08;;;;;;;17.50;10.20;;;;;;;;;;5008366;28;20037;-74
2022/03/07 02:20:34;;;;;;;17.02;9.55;;;;;;;;;;5008572;28;20382;-74
2022/03/07 02:23:00;;;;;;;12.93;7.57;;;;;;;;;;5007458;28;20131;-74
2022/03/07 02:25:26;;;;;;;16.75;9.32;;;;;;;;;;4992064;28;20026;-75
2022/03/07 02:27:52;;;;;;;12.88;8.77;;;;;;;;;;4989835;28;20026;-74
2022/03/07 02:30:19;;;;;;;12.38;8.40;;;;;;;;;;5009256;28;20056;-75
2022/03/07 02:32:45;;;;;;;11.38;6.80;;;;;;;;;;5006480;28;20103;-74
2022/03/07 02:35:12;;;;;;;12.75;6.05;;;;;;;;;;5002916;28;20030;-74
2022/03/07 02:37:38;;;;;;;8.00;6.35;;;;;;;;;;5007653;28;20538;-74
2022/03/07 02:40:04;;;;;;;11.45;6.25;;;;;;;;;;5007670;28;20748;-74
2022/03/07 02:42:31;;;;;;;7.78;5.47;;;;;;;;;;5008671;28;20030;-74
2022/03/07 02:44:57;;;;;;;14.13;6.85;;;;;;;;;;5008827;28;20101;-74
2022/03/07 02:47:23;;;;;;;9.82;7.00;;;;;;;;;;5008861;28;20069;-74
2022/03/07 02:49:50;;;;;;;12.85;6.70;;;;;;;;;;5008879;28;20030;-75
2022/03/07 02:52:16;;;;;;;8.55;6.57;;;;;;;;;;5006190;28;20120;-75
2022/03/07 02:54:42;;;;;;;12.52;6.22;;;;;;;;;;5008099;28;20025;-75
2022/03/07 02:57:08;;;;;;;13.25;7.10;;;;;;;;;;4987239;28;20033;-74
2022/03/07 02:59:35;;;;;;;8.00;5.88;;;;;;;;;;5004853;28;20072;-75
2022/03/07 03:02:01;;;;;;;13.05;7.00;;;;;;;;;;5000608;28;20030;-75
2022/03/07 03:04:27;;;;;;;11.30;6.53;;;;;;;;;;5011828;28;20026;-75
2022/03/07 03:06:53;;;;;;;16.17;8.35;;;;;;;;;;5011841;28;20026;-74
2022/03/07 03:09:19;;;;;;;13.25;7.05;;;;;;;;;;5013533;28;20364;-75
2022/03/07 03:11:45;;;;;;;13.80;7.82;;;;;;;;;;5011608;28;20026;-74
2022/03/07 03:14:11;;;;;;;12.60;7.35;;;;;;;;;;4995993;28;20030;-75
2022/03/07 03:16:38;;;;;;;9.82;5.85;;;;;;;;;;5011012;28;20029;-75
2022/03/07 03:19:04;;;;;;;13.88;7.15;;;;;;;;;;5013953;28;20136;-74
2022/03/07 03:21:30;;;;;;;10.90;7.07;;;;;;;;;;5010244;28;20034;-73
2022/03/07 03:23:56;;;;;;;11.15;6.97;;;;;;;;;;5011694;28;20073;-73
2022/03/07 03:26:22;;;;;;;9.18;6.45;;;;;;;;;;5009820;28;20160;-74
2022/03/07 03:28:48;;;;;;;11.77;7.22;;;;;;;;;;5011010;28;20087;-73
2022/03/07 03:31:14;;;;;;;11.00;6.32;;;;;;;;;;5011243;28;20018;-73
2022/03/07 03:33:42;;;;;;;11.75;7.47;;;;;;;;;;5011049;28;20640;-73
2022/03/07 03:36:08;;;;;;;11.55;7.40;;;;;;;;;;5009278;28;20026;-73
2022/03/07 03:38:34;;;;;;;9.10;5.43;;;;;;;;;;5012667;28;20621;-72
2022/03/07 03:41:01;;;;;;;9.73;5.65;;;;;;;;;;5010644;28;20033;-74
2022/03/07 03:43:27;;;;;;;6.43;4.97;;;;;;;;;;5012087;28;20136;-73
2022/03/07 03:45:53;;;;;;;8.73;4.97;;;;;;;;;;4989277;28;20551;-73
2022/03/07 03:48:20;;;;;;;7.30;4.10;;;;;;;;;;5011480;28;20049;-72
2022/03/07 03:50:46;;;;;;;6.82;4.10;;;;;;;;;;5003481;28;20095;-73
2022/03/07 03:53:12;;;;;;;7.88;3.90;;;;;;;;;;5011404;28;20030;-72
2022/03/07 03:55:38;;;;;;;9.48;3.88;;;;;;;;;;5011664;28;20087;-73
2022/03/07 03:58:04;;;;;;;9.88;3.58;;;;;;;;;;5010179;28;20048;-73
2022/03/07 04:00:30;;;;;;;5.40;3.28;;;;;;;;;;5010405;28;20041;-74
2022/03/07 04:02:57;;;;;;;6.43;3.50;;;;;;;;;;5010570;28;20030;-72
2022/03/07 04:05:23;;;;;;;5.50;3.50;;;;;;;;;;5011211;28;20026;-73
2022/03/07 04:07:49;;;;;;;4.13;3.38;;;;;;;;;;5009078;28;20030;-74
2022/03/07 04:10:15;;;;;;;6.20;3.33;;;;;;;;;;5010023;28;20038;-73
2022/03/07 04:12:42;;;;;;;7.22;4.05;;;;;;;;;;5002336;28;20034;-73
2022/03/07 04:15:08;;;;;;;4.25;3.10;;;;;;;;;;5009494;28;20745;-73
2022/03/07 04:17:37;;;;;;;5.25;3.22;;;;;;;;;;5011895;28;20078;-73
2022/03/07 04:20:03;;;;;;;4.85;3.10;;;;;;;;;;5008144;28;20037;-73
2022/03/07 04:22:29;;;;;;;3.60;2.90;;;;;;;;;;5009565;28;20033;-73
2022/03/07 04:24:55;;;;;;;4.82;3.20;;;;;;;;;;5003427;28;20030;-73
2022/03/07 04:27:21;;;;;;;5.85;3.00;;;;;;;;;;5010710;28;20022;-73
2022/03/07 04:29:49;;;;;;;6.82;2.72;;;;;;;;;;5009123;28;20034;-73
2022/03/07 04:32:15;;;;;;;6.00;2.50;;;;;;;;;;5010122;28;20025;-73
2022/03/07 04:34:41;;;;;;;4.38;3.08;;;;;;;;;;5017945;28;20034;-73
2022/03/07 04:37:07;;;;;;;3.20;2.80;;;;;;;;;;4998584;28;20037;-72
2022/03/07 04:39:33;;;;;;;5.03;2.83;;;;;;;;;;5009968;28;20034;-73
2022/03/07 04:41:59;;;;;;;4.65;2.67;;;;;;;;;;5009551;28;20030;-73
2022/03/07 04:44:25;;;;;;;3.42;2.92;;;;;;;;;;5007642;28;20365;-73
2022/03/07 04:46:51;;;;;;;5.88;2.33;;;;;;;;;;5010624;28;20026;-73
2022/03/07 04:49:17;;;;;;;4.07;2.88;;;;;;;;;;4993434;28;20475;-73
2022/03/07 04:51:45;;;;;;;5.90;2.97;;;;;;;;;;5006860;28;20074;-74
2022/03/07 04:54:12;;;;;;;5.05;2.92;;;;;;;;;;5009639;28;20029;-73
2022/03/07 04:56:38;;;;;;;4.20;2.60;;;;;;;;;;5009597;28;20060;-72
2022/03/07 04:59:05;;;;;;;5.20;2.95;;;;;;;;;;5010222;28;20600;-73
2022/03/07 05:01:31;;;;;;;5.63;2.67;;;;;;;;;;5007000;28;20037;-73
2022/03/07 05:03:57;;;;;;;3.42;1.95;;;;;;;;;;5010039;28;20029;-73
2022/03/07 05:06:23;;;;;;;4.20;2.58;;;;;;;;;;5009532;28;20133;-73
2022/03/07 05:08:49;;;;;;;5.95;2.40;;;;;;;;;;5010309;28;20030;-73
2022/03/07 05:11:15;;;;;;;4.65;2.60;;;;;;;;;;5010198;28;20026;-73
2022/03/07 05:13:41;;;;;;;7.38;3.05;;;;;;;;;;5003162;28;20088;-73
2022/03/07 05:16:07;;;;;;;4.97;2.63;;;;;;;;;;5009945;28;20029;-72
2022/03/07 05:18:34;;;;;;;4.25;2.47;;;;;;;;;;5008374;28;20033;-73
2022/03/07 05:21:00;;;;;;;4.55;2.40;;;;;;;;;;5010712;28;20096;-73
2022/03/07 05:23:26;;;;;;;5.03;2.42;;;;;;;;;;5008507;28;20057;-73
2022/03/07 05:25:52;;;;;;;4.43;2.05;;;;;;;;;;5006823;28;20026;-73
2022/03/07 05:28:18;;;;;;;6.55;2.40;;;;;;;;;;5008955;28;20188;-73
2022/03/07 05:30:44;;;;;;;7.18;2.67;;;;;;;;;;5009112;28;20107;-73
2022/03/07 05:33:10;;;;;;;4.50;2.30;;;;;;;;;;4990231;28;20038;-73
2022/03/07 05:35:37;;;;;;;7.13;2.95;;;;;;;;;;5010020;28;20637;-73
2022/03/07 05:38:04;;;;;;;6.38;3.50;;;;;;;;;;5009303;28;20059;-73
2022/03/07 05:40:30;;;;;;;3.85;2.50;;;;;;;;;;5008429;28;20480;-73
2022/03/07 05:42:56;;;;;;;4.07;2.47;;;;;;;;;;4991688;28;20038;-72
2022/03/07 05:45:22;;;;;;;4.82;2.35;;;;;;;;;;5007673;28;20077;-73
2022/03/07 05:47:48;;;;;;;5.82;2.30;;;;;;;;;;5005510;28;20476;-72
2022/03/07 05:50:14;;;;;;;5.72;2.10;;;;;;;;;;5005328;28;20050;-72
2022/03/07 05:52:40;;;;;;;4.15;2.17;;;;;;;;;;5008468;28;20113;-72
2022/03/07 05:55:07;;;;;;;7.82;2.40;;;;;;;;;;5007700;28;20044;-73
2022/03/07 05:57:33;;;;;;;5.05;2.17;;;;;;;;;;5007936;28;20036;-72
2022/03/07 05:59:59;;;;;;;4.00;2.15;;;;;;;;;;5007493;28;20018;-73
2022/03/07 06:02:25;;;;;;;4.45;2.10;;;;;;;;;;4991811;28;20108;-73
2022/03/07 06:04:52;;;;;;;7.82;2.42;;;;;;;;;;5008224;28;20030;-73
2022/03/07 06:07:18;;;;;;;3.90;2.30;;;;;;;;;;4983931;28;20032;-73
2022/03/07 06:09:44;;;;;;;8.73;2.45;;;;;;;;;;5001682;28;20131;-73
2022/03/07 06:12:10;;;;;;;4.47;2.95;;;;;;;;;;5002054;28;20514;-72
2022/03/07 06:14:36;;;;;;;8.75;2.58;;;;;;;;;;5008862;28;20037;-73
2022/03/07 06:17:03;;;;;;;3.88;2.38;;;;;;;;;;5011596;28;20033;-73
2022/03/07 06:19:29;;;;;;;5.13;2.15;;;;;;;;;;5009405;28;20033;-72
2022/03/07 06:21:55;;;;;;;4.32;2.40;;;;;;;;;;5008246;28;20022;-73
2022/03/07 06:24:21;;;;;;;4.43;2.55;;;;;;;;;;5007951;28;20672;-74
2022/03/07 06:26:47;;;;;;;2.97;2.45;;;;;;;;;;5007813;28;20029;-73
2022/03/07 06:29:13;;;;;;;5.72;2.67;;;;;;;;;;5007686;28;20087;-74
2022/03/07 06:31:39;;;;;;;5.18;2.13;;;;;;;;;;4989849;28;20182;-74
2022/03/07 06:34:05;;;;;;;5.13;2.28;;;;;;;;;;5008611;28;20034;-73
2022/03/07 06:36:31;;;;;;;2.63;2.20;;;;;;;;;;5008684;28;20026;-74
2022/03/07 06:38:57;;;;;;;4.90;2.08;;;;;;;;;;5003934;28;20037;-73
2022/03/07 06:41:23;;;;;;;4.28;2.00;;;;;;;;;;5008270;28;20037;-74
2022/03/07 06:43:49;;;;;;;5.82;2.55;;;;;;;;;;5005527;28;20026;-75
2022/03/07 06:46:16;;;;;;;4.03;2.22;;;;;;;;;;5007682;28;20028;-74
2022/03/07 06:48:42;;;;;;;5.85;2.67;;;;;;;;;;5007933;28;20048;-73
2022/03/07 06:51:08;;;;;;;3.78;2.70;;;;;;;;;;5007245;28;20026;-74
2022/03/07 06:53:35;;;;;;;4.32;2.63;;;;;;;;;;5005379;28;20057;-74
2022/03/07 06:56:01;;;;;;;5.68;2.40;;;;;;;;;;5008863;28;20030;-74
2022/03/07 06:58:27;;;;;;;4.93;2.70;;;;;;;;;;5010487;28;20030;-74
2022/03/07 07:00:53;;;;;;;4.95;2.53;;;;;;;;;;5012333;28;20073;-74
2022/03/07 07:03:19;;;;;;;6.28;2.72;;;;;;;;;;5008487;28;20049;-74
2022/03/07 07:05:45;;;;;;;4.03;2.72;;;;;;;;;;5000596;28;20065;-74
2022/03/07 07:08:11;;;;;;;4.70;2.47;;;;;;;;;;5007764;28;20068;-74
2022/03/07 07:10:38;;;;;;;3.35;2.42;;;;;;;;;;5007939;28;20100;-74
2022/03/07 07:13:04;;;;;;;3.80;2.17;;;;;;;;;;5009002;28;20034;-74
2022/03/07 07:15:30;;;;;;;5.78;2.45;;;;;;;;;;5007945;28;20447;-74
2022/03/07 07:17:56;;;;;;;8.43;2.90;;;;;;;;;;5009465;28;20030;-74
2022/03/07 07:20:22;;;;;;;6.63;2.70;;;;;;;;;;5005567;28;20030;-74
2022/03/07 07:22:48;;;;;;;4.72;2.78;;;;;;;;;;5008280;28;20096;-73
2022/03/07 07:25:14;;;;;;;6.78;2.78;;;;;;;;;;5008885;28;20022;-74
2022/03/07 07:27:40;;;;;;;5.13;2.47;;;;;;;;;;5008154;28;20030;-74
2022/03/07 07:30:08;;;;;;;4.57;2.42;;;;;;;;;;5009555;28;20022;-72
2022/03/07 07:32:35;;;;;;;5.93;2.60;;;;;;;;;;5006812;28;20506;-74
2022/03/07 07:35:01;;;;;;;4.05;3.10;;;;;;;;;;4999743;28;20042;-73
2022/03/07 07:37:27;;;;;;;3.78;2.40;;;;;;;;;;5008932;28;20034;-73
2022/03/07 07:39:53;;;;;;;3.35;2.30;;;;;;;;;;5009520;28;20033;-72
2022/03/07 07:42:19;;;;;;;6.55;3.15;;;;;;;;;;4991999;28;20034;-72
2022/03/07 07:44:45;;;;;;;5.80;2.50;;;;;;;;;;5009295;28;20075;-72
2022/03/07 07:47:11;;;;;;;3.22;2.28;;;;;;;;;;5005702;28;20397;-73
2022/03/07 07:49:38;;;;;;;5.68;2.30;;;;;;;;;;5005614;28;20022;-73
2022/03/07 07:52:04;;;;;;;3.38;2.38;;;;;;;;;;4991177;28;20552;-73
2022/03/07 07:54:31;;;;;;;3.35;2.50;;;;;;;;;;5010128;28;20044;-73
2022/03/07 07:56:57;;;;;;;4.32;2.45;;;;;;;;;;5008448;28;20488;-73
2022/03/07 07:59:23;;;;;;;4.38;2.70;;;;;;;;;;5012074;28;20029;-73
2022/03/07 08:01:49;;;;;;;3.20;2.55;;;;;;;;;;5010121;28;20038;-72
2022/03/07 08:04:15;;;;;;;5.97;2.50;;;;;;;;;;5012605;28;20045;-73
2022/03/07 08:06:41;;;;;;;8.80;2.58;;;;;;;;;;5012273;28;20036;-74
2022/03/07 08:09:08;;;;;;;4.20;2.35;;;;;;;;;;5012216;28;20054;-73
2022/03/07 08:11:34;;;;;;;2.67;2.05;;;;;;;;;;5010897;28;20041;-73
2022/03/07 08:14:00;;;;;;;8.43;2.30;;;;;;;;;;5008933;28;20034;-73
2022/03/07 08:16:26;;;;;;;5.97;2.10;;;;;;;;;;5011986;28;20543;-73
2022/03/07 08:18:52;;;;;;;4.10;2.55;;;;;;;;;;5012862;28;20395;-73
2022/03/07 08:21:21;;;;;;;4.40;2.33;;;;;;;;;;5011106;28;20088;-74
2022/03/07 08:23:47;;;;;;;6.43;2.22;;;;;;;;;;5010898;28;20049;-72
2022/03/07 08:26:13;;;;;;;3.67;2.13;;;;;;;;;;5006284;28;20327;-73
2022/03/07 08:28:39;;;;;;;4.32;2.17;;;;;;;;;;5010259;28;20033;-74
2022/03/07 08:31:06;;;;;;;4.85;2.00;;;;;;;;;;5011618;28;20025;-74
2022/03/07 08:33:32;;;;;;;5.97;2.10;;;;;;;;;;5006261;28;20027;-73
2022/03/07 08:35:58;;;;;;;2.95;2.30;;;;;;;;;;5011102;28;20403;-74
2022/03/07 08:38:24;;;;;;;6.18;2.00;;;;;;;;;;5008739;28;20026;-73
2022/03/07 08:40:51;;;;;;;4.40;2.20;;;;;;;;;;4990107;28;20512;-73
2022/03/07 08:43:17;;;;;;;7.57;2.50;;;;;;;;;;5006351;28;20029;-73
2022/03/07 08:45:43;;;;;;;6.78;2.28;;;;;;;;;;5006455;28;20045;-74
2022/03/07 08:48:09;;;;;;;4.18;2.10;;;;;;;;;;5007594;28;20084;-73
2022/03/07 08:50:35;;;;;;;4.57;2.17;;;;;;;;;;5009109;28;20029;-74
2022/03/07 08:53:01;;;;;;;6.75;2.13;;;;;;;;;;5009020;28;20379;-73
2022/03/07 08:55:27;;;;;;;3.85;1.92;;;;;;;;;;5008702;28;20438;-74
2022/03/07 08:57:53;;;;;;;5.95;2.03;;;;;;;;;;5008126;28;20042;-74
2022/03/07 09:00:20;;;;;;;5.15;2.22;;;;;;;;;;5009388;28;20100;-74
2022/03/07 09:02:47;;;;;;;5.18;2.20;;;;;;;;;;5008653;28;20385;-74
2022/03/07 09:05:13;;;;;;;3.85;1.98;;;;;;;;;;5009589;28;20101;-73
2022/03/07 09:07:39;;;;;;;6.07;2.65;;;;;;;;;;5010033;28;20380;-74
2022/03/07 09:10:05;;;;;;;5.18;2.03;;;;;;;;;;4991980;28;20034;-74
2022/03/07 09:12:31;;;;;;;3.42;2.22;;;;;;;;;;5008305;28;20057;-74
2022/03/07 09:14:58;;;;;;;7.30;2.60;;;;;;;;;;5004407;28;20026;-74
2022/03/07 09:17:25;;;;;;;3.00;2.13;;;;;;;;;;5012422;28;20034;-74
2022/03/07 09:19:52;;;;;;;4.63;2.20;;;;;;;;;;5009160;28;20509;-74
2022/03/07 09:22:19;;;;;;;6.40;2.75;;;;;;;;;;5010285;28;20029;-73
2022/03/07 09:24:45;;;;;;;4.85;2.90;;;;;;;;;;5009012;28;20081;-75
2022/03/07 09:27:11;;;;;;;4.18;2.30;;;;;;;;;;5009036;28;20045;-74
2022/03/07 09:29:37;;;;;;;3.92;2.22;;;;;;;;;;5010466;28;20172;-74
2022/03/07 09:32:05;;;;;;;4.22;2.50;;;;;;;;;;5009249;28;20037;-74
2022/03/07 09:34:32;;;;;;;3.63;2.30;;;;;;;;;;5001333;28;20473;-74
2022/03/07 09:36:58;;;;;;;2.42;2.22;;;;;;;;;;5005043;28;20533;-74
2022/03/07 09:39:24;;;;;;;5.90;2.63;;;;;;;;;;5008387;28;20593;-75
2022/03/07 09:41:50;;;;;;;9.68;2.85;;;;;;;;;;5006138;28;20499;-74
2022/03/07 09:44:16;;;;;;;5.45;2.30;;;;;;;;;;5009180;28;20053;-74
2022/03/07 09:46:43;;;;;;;7.85;2.20;;;;;;;;;;5005968;28;20093;-74
2022/03/07 09:49:09;;;;;;;2.20;2.00;;;;;;;;;;5006766;28;20066;-74
2022/03/07 09:51:35;;;;;;;3.63;2.15;;;;;;;;;;5010817;28;20499;-73
2022/03/07 09:54:02;;;;;;;3.75;2.40;;;;;;;;;;5007355;28;20117;-74
2022/03/07 09:56:28;;;;;;;7.55;2.55;;;;;;;;;;5007802;28;20088;-73
2022/03/07 09:58:54;;;;;;;4.32;2.67;;;;;;;;;;4992104;28;20026;-73
2022/03/07 10:01:20;;;;;;;8.85;3.17;;;;;;;;;;5009948;28;20026;-74
2022/03/07 10:03:47;;;;;;;4.05;2.47;;;;;;;;;;5010053;28;20029;-75
2022/03/07 10:06:14;;;;;;;4.35;2.25;;;;;;;;;;5010904;28;20080;-74
2022/03/07 10:08:50;;;;;;;7.05;2.78;;;;;;;;;;4995912;28;20099;-74
2022/03/07 10:11:17;;;;;;;3.90;2.75;;;;;;;;;;4990695;28;20026;-74
2022/03/07 10:13:50;;;;;;;4.80;2.42;;;;;;;;;;5007907;28;20408;-74
2022/03/07 10:16:16;;;;;;;3.80;2.10;;;;;;;;;;5010630;28;20026;-74
2022/03/07 10:18:48;;;;;;;4.75;2.00;;;;;;;;;;5013538;28;20060;-73
2022/03/07 10:21:20;;;;;;;3.10;2.15;;;;;;;;;;4992249;28;20321;-74
2022/03/07 10:23:50;;;;;;;5.47;2.67;;;;;;;;;;5002476;28;20054;-73
2022/03/07 10:26:16;;;;;;;2.85;2.30;;;;;;;;;;4989445;28;20029;-73
2022/03/07 10:28:42;;;;;;;4.93;2.40;;;;;;;;;;4989657;28;20030;-73
2022/03/07 10:31:12;;;;;;;9.60;5.72;;;;;;;;;;4988475;28;20018;-73
2022/03/07 10:33:39;;;;;;;5.38;3.05;;;;;;;;;;4988465;28;20034;-72
2022/03/07 10:36:05;;;;;;;5.38;3.65;;;;;;;;;;4987588;28;20117;-72
2022/03/07 10:38:31;;;;;;;16.77;5.32;;;;;;;;;;4988519;28;20071;-73
2022/03/07 10:40:57;;;;;;;9.07;4.68;;;;;;;;;;4989448;28;20517;-73
2022/03/07 10:43:24;;;;;;;7.90;4.07;;;;;;;;;;4989363;28;20026;-72
2022/03/07 10:45:52;;;;;;;7.75;4.90;;;;;;;;;;4989097;28;20022;-73
2022/03/07 10:48:18;;;;;;;10.23;6.22;;;;;;;;;;4989760;28;20030;-73
2022/03/07 10:50:48;;;;;;;3.47;2.88;;;;;;;;;;4985632;28;20026;-73
2022/03/07 10:53:14;;;;;;;10.00;4.22;;;;;;;;;;4986597;28;20527;-73
2022/03/07 10:55:41;;;;;;;6.45;4.20;;;;;;;;;;4988239;28;20137;-74
2022/03/07 10:58:09;;;;;;;5.43;3.58;;;;;;;;;;4988623;28;20457;-74
2022/03/07 11:00:47;;;;;;;6.78;3.50;;;;;;;;;;4989117;28;20494;-74
2022/03/07 11:03:17;;;;;;;4.65;3.88;;;;;;;;;;4984400;28;20033;-75
2022/03/07 11:05:44;;;;;;;5.18;4.35;;;;;;;;;;4990367;28;20030;-74
2022/03/07 11:08:10;;;;;;;4.57;3.10;;;;;;;;;;4983303;28;20029;-75
2022/03/07 11:10:37;;;;;;;8.60;4.25;;;;;;;;;;4989786;28;20575;-75
2022/03/07 11:13:03;;;;;;;4.55;3.35;;;;;;;;;;4991238;28;20970;-74
2022/03/07 11:15:29;;;;;;;15.73;6.38;;;;;;;;;;4982846;28;20026;-75
2022/03/07 11:17:56;;;;;;;11.68;6.07;;;;;;;;;;4987463;28;20084;-73
2022/03/07 11:20:22;;;;;;;3.42;2.63;;;;;;;;;;4987635;28;20631;-75
2022/03/07 11:22:48;;;;;;;6.18;3.05;;;;;;;;;;4986185;28;20038;-75
2022/03/07 11:25:16;;;;;;;4.65;2.28;;;;;;;;;;4989371;28;20774;-74
2022/03/07 11:27:42;;;;;;;7.32;2.55;;;;;;;;;;4991462;28;20038;-74
2022/03/07 11:30:16;;;;;;;5.88;2.85;;;;;;;;;;4991250;28;20025;-75
2022/03/07 11:32:42;;;;;;;5.97;2.20;;;;;;;;;;4996719;28;20089;-75
2022/03/07 11:35:09;;;;;;;4.47;1.92;;;;;;;;;;4992824;28;20114;-74
2022/03/07 11:37:35;;;;;;;5.95;3.65;;;;;;;;;;4993756;28;20030;-75
2022/03/07 11:40:03;;;;;;;4.38;2.58;;;;;;;;;;4989372;28;20023;-74
2022/03/07 11:42:37;;;;;;;6.00;2.75;;;;;;;;;;4991088;28;20041;-75
2022/03/07 11:45:08;;;;;;;3.87;2.20;;;;;;;;;;4992864;28;20090;-75
2022/03/07 11:47:38;;;;;;;4.30;2.45;;;;;;;;;;4992034;28;20022;-75
2022/03/07 11:50:05;;;;;;;3.95;2.25;;;;;;;;;;4990042;28;20510;-74
2022/03/07 11:52:31;;;;;;;2.15;1.95;;;;;;;;;;4991491;28;20516;-74
2022/03/07 11:54:59;;;;;;;4.78;2.50;;;;;;;;;;4991993;28;20026;-74
2022/03/07 11:57:36;;;;;;;9.30;3.80;;;;;;;;;;4991289;28;20567;-74
2022/03/07 12:00:14;;;;;;;6.28;2.53;;;;;;;;;;4991880;28;20034;-75
2022/03/07 12:02:41;;;;;;;6.88;2.42;;;;;;;;;;4991076;28;20034;-74
2022/03/07 12:05:18;;;;;;;5.35;2.17;;;;;;;;;;4991300;28;20668;-73
2022/03/07 12:07:44;;;;;;;2.00;1.80;;;;;;;;;;4991233;28;20037;-73
2022/03/07 12:10:11;;;;;;;6.18;2.67;;;;;;;;;;4987319;28;20031;-73
2022/03/07 12:12:37;;;;;;;6.03;2.45;;;;;;;;;;4992568;28;20092;-73
2022/03/07 12:15:10;;;;;;;2.38;1.92;;;;;;;;;;4987766;28;20061;-74
2022/03/07 12:17:36;;;;;;;6.75;2.08;;;;;;;;;;4988776;28;20022;-74
2022/03/07 12:20:02;;;;;;;4.13;2.42;;;;;;;;;;4992857;28;20109;-73
2022/03/07 12:22:30;;;;;;;5.28;2.30;;;;;;;;;;4992824;28;20022;-75
2022/03/07 12:25:00;;;;;;;7.03;2.80;;;;;;;;;;5011473;28;20038;-73
2022/03/07 12:27:26;;;;;;;7.18;2.10;;;;;;;;;;5007535;28;20064;-74
2022/03/07 12:29:52;;;;;;;3.72;1.80;;;;;;;;;;5011141;28;20032;-74
2022/03/07 12:32:19;;;;;;;5.03;2.20;;;;;;;;;;5010666;28;20530;-74
2022/03/07 12:34:46;;;;;;;4.65;2.30;;;;;;;;;;5011664;28;20052;-74
2022/03/07 12:37:16;;;;;;;4.40;2.10;;;;;;;;;;5010307;28;20259;-75
2022/03/07 12:39:52;;;;;;;5.47;2.38;;;;;;;;;;4994003;28;20396;-74
2022/03/07 12:42:19;;;;;;;3.05;2.13;;;;;;;;;;5008566;28;20025;-73
2022/03/07 12:44:46;;;;;;;5.53;2.08;;;;;;;;;;5011997;28;20105;-74
2022/03/07 12:47:12;;;;;;;4.25;1.92;;;;;;;;;;5007030;28;20026;-73
2022/03/07 12:49:39;;;;;;;5.22;2.50;;;;;;;;;;4988167;28;20487;-74
2022/03/07 12:52:08;;;;;;;10.48;3.17;;;;;;;;;;5005071;28;20040;-73
2022/03/07 12:54:35;;;;;;;4.32;2.30;;;;;;;;;;5011600;28;20029;-74
2022/03/07 12:57:02;;;;;;;5.30;2.60;;;;;;;;;;5007818;28;20049;-73
2022/03/07 12:59:29;;;;;;;7.50;3.03;;;;;;;;;;5009886;28;20843;-73
2022/03/07 13:01:55;;;;;;;5.03;3.20;;;;;;;;;;5009251;28;20080;-75
2022/03/07 13:04:25;;;;;;;6.80;2.65;;;;;;;;;;4991413;28;20026;-74
2022/03/07 13:06:52;;;;;;;4.00;1.90;;;;;;;;;;5003653;28;20033;-74
2022/03/07 13:09:20;;;;;;;4.07;2.05;;;;;;;;;;5003746;28;20026;-73
2022/03/07 13:11:51;;;;;;;3.03;1.77;;;;;;;;;;5003957;28;20032;-73
2022/03/07 13:14:22;;;;;;;3.08;2.03;;;;;;;;;;5001760;28;20014;-73
2022/03/07 13:16:48;;;;;;;8.82;3.45;;;;;;;;;;5003111;28;20030;-73
2022/03/07 13:19:15;;;;;;;3.92;2.17;;;;;;;;;;5000313;28;20049;-74
2022/03/07 13:21:45;;;;;;;2.97;1.67;;;;;;;;;;5003208;28;20034;-74
2022/03/07 13:24:21;;;;;;;6.40;2.70;;;;;;;;;;5002745;28;20045;-72
2022/03/07 13:26:57;;;;;;;4.75;2.03;;;;;;;;;;4985245;28;20026;-72
2022/03/07 13:29:24;;;;;;;3.53;1.80;;;;;;;;;;4988970;28;20022;-73
2022/03/07 13:31:53;;;;;;;5.03;1.85;;;;;;;;;;5008909;28;20083;-73
2022/03/07 13:34:19;;;;;;;4.50;2.28;;;;;;;;;;5007556;28;20083;-73
2022/03/07 13:36:52;;;;;;;7.50;2.20;;;;;;;;;;5007054;28;20314;-74
2022/03/07 13:39:19;;;;;;;2.38;1.85;;;;;;;;;;5008121;28;20025;-74
2022/03/07 13:41:49;;;;;;;2.63;1.90;;;;;;;;;;5001729;28;20037;-74
2022/03/07 13:44:15;;;;;;;3.05;1.90;;;;;;;;;;5000117;28;20117;-74
2022/03/07 13:46:51;;;;;;;2.83;2.00;;;;;;;;;;4995071;28;20145;-74
2022/03/07 13:49:17;;;;;;;7.70;3.38;;;;;;;;;;4998455;28;20052;-73
2022/03/07 13:51:43;;;;;;;5.68;2.88;;;;;;;;;;4997797;28;20033;-73
2022/03/07 13:54:09;;;;;;;5.00;3.10;;;;;;;;;;4998984;28;20097;-73
2022/03/07 13:56:36;;;;;;;4.00;2.55;;;;;;;;;;4998877;28;20053;-73
2022/03/07 13:59:14;;;;;;;6.43;3.13;;;;;;;;;;4982022;28;20026;-74
2022/03/07 14:01:41;;;;;;;4.22;2.10;;;;;;;;;;5002895;28;20037;-73
2022/03/07 14:04:14;;;;;;;6.43;2.45;;;;;;;;;;5002251;28;20033;-73
2022/03/07 14:06:41;;;;;;;5.35;2.38;;;;;;;;;;4999330;28;20500;-72
2022/03/07 14:09:11;;;;;;;4.90;2.20;;;;;;;;;;5002903;28;20029;-73
2022/03/07 14:11:38;;;;;;;5.40;2.67;;;;;;;;;;5007177;28;20030;-73
2022/03/07 14:14:04;;;;;;;6.10;2.90;;;;;;;;;;5009338;28;20089;-73
2022/03/07 14:16:40;;;;;;;7.93;4.05;;;;;;;;;;4988846;28;20022;-73
2022/03/07 14:19:07;;;;;;;8.45;3.35;;;;;;;;;;5007293;28;20022;-73
2022/03/07 14:21:33;;;;;;;4.95;2.75;;;;;;;;;;5009430;28;20105;-74
2022/03/07 14:24:00;;;;;;;6.03;3.83;;;;;;;;;;5009070;28;20038;-74
2022/03/07 14:26:26;;;;;;;3.53;2.13;;;;;;;;;;5008284;28;20088;-73
2022/03/07 14:28:52;;;;;;;4.68;2.78;;;;;;;;;;5010409;28;20022;-74
2022/03/07 14:31:19;;;;;;;4.15;2.83;;;;;;;;;;5009592;28;20024;-73
2022/03/07 14:33:45;;;;;;;5.00;2.40;;;;;;;;;;4993683;28;20785;-73
2022/03/07 14:36:11;;;;;;;5.75;2.80;;;;;;;;;;4990010;28;20507;-72